Ana Sayfa
METAR-TAF:

METAR-TAF

Havaalanları :

Porto Alegre, Rio Grande do Sul, Brezilya

Enlem: 30-00S, Boylam: 051-11W, yükseklik: 3 m

Güncel hava durumu gözlemi

Rapor saat 08:00 UTC de 19 dakika önce yapıldı.
Rüzgar doğudan 4 kt
Sıcaklık 16°C
Nem 100%
Basınç 1011 hPa
Görüş mesafesi 10 km veya daha fazla
1500 m altında bulut yok ve kümülonimbus yok

METAR: SBPA 150800Z 08004KT CAVOK 16/16 Q1011

Saat: 05:19 (08:19 UTC)

Tahmin

Rapor saat 03:00 UTC de 5 saat ve 19 dakika önce yapıldı.
Ayın 15'si saat 06 UTC'den ayın 16'si saat 06 UTC'ye kadar geçerli Tahmin
Rüzgar güneydoğudan 7 kt
Görüş mesafesi 10 km veya daha fazla
1500 m altında bulut yok ve kümülonimbus yok

TAF: SBPA 150300Z 1506/1606 13007KT CAVOK TN17/1508Z TX32/1518Z RMK PER

4.000'den fazla havaalanı için hava durumu gözlemleri ve tahminleri (METAR ve TAF raporları).

Kullanılabilir istasyonlar harita üzerinde sarı ve kırmızı noktalarla gösterilir.

İstasyonun adını görmek için fareyi noktanın üzerinde gezdirin.

Sonrasında hava gözlem ve tahminlerini görmek için tıklayın.

Haritayı değiştirmek için: yaklaştırmak için siyah artı işaretli yeşil düğmeye ve uzaklaştırmak için de eksi işaretli düğmeye hızla tıklayın; bitişik haritalar için yeşil okları kullanın.


METAR-TAF: